Time;durP1;ratioP1;P1;durP2;ratioP2;P2;SDS_P1;SDS_P2;PMS_P1;PMS_P2;Temp;Humidity;BMP_temperature;BMP_pressure;BME280_temperature;BME280_humidity;BME280_pressure;Samples;Min_cycle;Max_cycle;Signal;HPM_P1;HPM_P2
2023/05/13 00:01:37;;;;;;;0.60;0.60;;;;;;;8.58;58.59;99636.47;4934479;29;20073;-83
2023/05/13 00:04:08;;;;;;;0.50;0.50;;;;;;;8.61;58.45;99639.59;4933907;29;20502;-83
2023/05/13 00:06:38;;;;;;;0.50;0.50;;;;;;;8.64;58.34;99632.94;4935556;29;20529;-83
2023/05/13 00:09:05;;;;;;;0.50;0.50;;;;;;;8.66;58.47;99639.75;4934282;29;20051;-83
2023/05/13 00:11:33;;;;;;;0.50;0.50;;;;;;;8.61;58.89;99631.50;4951755;29;20055;-83
2023/05/13 00:14:00;;;;;;;0.60;0.60;;;;;;;8.47;59.22;99635.31;4951354;29;20138;-83
2023/05/13 00:16:28;;;;;;;0.50;0.50;;;;;;;8.39;59.52;99628.31;4951295;29;20062;-83
2023/05/13 00:18:55;;;;;;;0.60;0.60;;;;;;;8.39;59.84;99632.84;4951247;29;20224;-83
2023/05/13 00:21:22;;;;;;;0.50;0.50;;;;;;;8.32;59.24;99643.63;4951877;29;20137;-83
2023/05/13 00:23:49;;;;;;;0.50;0.50;;;;;;;8.40;59.05;99648.78;4951124;29;20047;-83
2023/05/13 00:26:17;;;;;;;0.50;0.50;;;;;;;8.33;58.95;99636.38;4951265;29;20055;-83
2023/05/13 00:28:49;;;;;;;0.50;0.50;;;;;;;8.40;58.66;99642.56;4951439;29;20051;-84
2023/05/13 00:31:17;;;;;;;0.50;0.50;;;;;;;8.42;58.40;99641.31;4934512;29;20102;-83
2023/05/13 00:33:44;;;;;;;0.50;0.50;;;;;;;8.41;58.80;99644.25;4951412;29;20059;-83
2023/05/13 00:36:11;;;;;;;0.60;0.60;;;;;;;8.35;59.46;99655.81;4951117;29;20062;-84
2023/05/13 00:38:38;;;;;;;0.50;0.50;;;;;;;8.33;58.95;99655.19;4951475;29;20051;-83
2023/05/13 00:41:08;;;;;;;0.60;0.60;;;;;;;8.31;59.33;99641.16;4934158;29;20100;-83
2023/05/13 00:43:35;;;;;;;0.50;0.50;;;;;;;8.37;58.39;99645.69;4951519;29;20110;-84
2023/05/13 00:46:03;;;;;;;0.50;0.50;;;;;;;8.46;58.49;99650.63;4952756;28;20055;-83
2023/05/13 00:48:31;;;;;;;0.50;0.50;;;;;;;8.36;58.73;99649.41;4922165;29;20141;-84
2023/05/13 00:50:58;;;;;;;0.50;0.50;;;;;;;8.34;59.02;99646.94;4954748;28;20636;-84
2023/05/13 00:53:25;;;;;;;0.57;0.57;;;;;;;8.30;59.18;99653.75;4937988;29;20065;-83
2023/05/13 00:55:52;;;;;;;0.60;0.60;;;;;;;8.17;59.46;99651.94;4955320;29;20444;-83
2023/05/13 00:58:19;;;;;;;0.50;0.50;;;;;;;8.21;59.03;99661.25;4955041;29;20058;-83
2023/05/13 01:00:49;;;;;;;0.50;0.50;;;;;;;8.16;59.54;99655.69;4937511;29;20422;-83
2023/05/13 01:03:24;;;;;;;0.50;0.50;;;;;;;8.14;59.46;99660.44;4946060;29;20503;-83
2023/05/13 01:06:19;;;;;;;0.50;0.50;;;;;;;8.08;59.63;99664.00;4918776;29;20052;-83
2023/05/13 01:08:59;;;;;;;0.60;0.60;;;;;;;8.02;59.69;99665.66;4913739;29;20134;-83
2023/05/13 01:11:42;;;;;;;0.60;0.60;;;;;;;8.12;58.90;99665.22;4936404;29;20051;-83
2023/05/13 01:14:20;;;;;;;0.50;0.50;;;;;;;8.21;58.23;99657.75;4935970;29;20047;-85
2023/05/13 01:16:58;;;;;;;0.60;0.60;;;;;;;8.34;57.59;99657.69;4915057;29;20876;-84
2023/05/13 01:19:37;;;;;;;0.50;0.50;;;;;;;8.51;57.62;99666.13;4956353;29;20079;-84
2023/05/13 01:22:06;;;;;;;0.60;0.60;;;;;;;8.49;57.66;99662.81;4924160;29;20502;-84
2023/05/13 01:24:33;;;;;;;0.60;0.60;;;;;;;8.46;57.90;99660.56;4935813;29;20056;-84
2023/05/13 01:27:02;;;;;;;0.50;0.50;;;;;;;8.37;58.01;99661.81;4918386;29;20556;-84
2023/05/13 01:29:30;;;;;;;0.50;0.50;;;;;;;8.40;57.75;99664.09;4926948;29;20043;-83
2023/05/13 01:31:58;;;;;;;0.50;0.50;;;;;;;8.26;58.19;99657.94;4922236;29;20071;-83
2023/05/13 01:34:26;;;;;;;0.60;0.60;;;;;;;8.26;57.63;99668.69;4937611;29;20118;-83
2023/05/13 01:36:54;;;;;;;0.60;0.60;;;;;;;8.25;57.86;99673.25;4936130;29;20481;-81
2023/05/13 01:39:22;;;;;;;0.50;0.50;;;;;;;8.16;58.61;99665.63;4928419;29;20052;-80
2023/05/13 01:41:52;;;;;;;0.50;0.50;;;;;;;8.08;58.94;99668.53;4931977;29;20070;-84
2023/05/13 01:44:19;;;;;;;0.52;0.52;;;;;;;8.04;58.96;99670.81;4937155;29;20051;-82
2023/05/13 01:46:47;;;;;;;0.52;0.52;;;;;;;7.96;59.59;99671.88;4937033;29;20047;-83
2023/05/13 01:49:16;;;;;;;0.60;0.60;;;;;;;7.90;60.13;99677.28;4940154;29;20055;-82
2023/05/13 01:51:45;;;;;;;0.60;0.60;;;;;;;7.79;60.72;99674.19;4950124;29;20067;-84
2023/05/13 01:54:12;;;;;;;0.60;0.60;;;;;;;7.78;61.50;99683.31;4937605;29;20533;-83
2023/05/13 01:56:45;;;;;;;0.50;0.50;;;;;;;7.80;61.05;99681.22;4938215;28;20510;-83
2023/05/13 01:59:12;;;;;;;0.60;0.60;;;;;;;7.91;60.33;99687.00;4937907;29;20055;-83
2023/05/13 02:01:43;;;;;;;0.60;0.60;;;;;;;7.99;59.63;99697.53;4922926;29;20051;-83
2023/05/13 02:04:12;;;;;;;0.50;0.50;;;;;;;8.10;58.99;99691.50;4921803;29;20138;-83
2023/05/13 02:06:40;;;;;;;0.60;0.60;;;;;;;8.16;58.74;99685.28;4919090;29;20083;-83
2023/05/13 02:09:08;;;;;;;0.60;0.60;;;;;;;8.28;58.25;99689.97;4902714;29;20433;-83
2023/05/13 02:11:38;;;;;;;0.60;0.60;;;;;;;8.41;57.85;99700.72;4902728;29;20099;-83
2023/05/13 02:14:06;;;;;;;0.50;0.50;;;;;;;8.41;57.60;99700.72;4922363;29;20091;-84
2023/05/13 02:16:34;;;;;;;0.60;0.60;;;;;;;8.54;56.95;99702.53;4919163;29;20110;-83
2023/05/13 02:19:05;;;;;;;0.50;0.50;;;;;;;8.66;56.54;99696.25;4918084;29;20050;-83
2023/05/13 02:21:39;;;;;;;0.60;0.60;;;;;;;8.87;55.92;99691.59;4935448;29;20573;-83
2023/05/13 02:24:09;;;;;;;0.60;0.60;;;;;;;9.00;55.13;99691.50;4933856;29;20059;-83
2023/05/13 02:26:37;;;;;;;0.60;0.60;;;;;;;9.24;53.89;99694.44;4950532;29;20466;-83
2023/05/13 02:29:04;;;;;;;0.50;0.50;;;;;;;9.50;52.83;99694.22;4954175;29;20145;-83
2023/05/13 02:31:32;;;;;;;0.50;0.50;;;;;;;9.91;51.40;99700.06;4937199;29;20059;-83
2023/05/13 02:34:01;;;;;;;0.50;0.50;;;;;;;10.06;51.27;99694.31;4953816;29;20051;-83
2023/05/13 02:36:29;;;;;;;0.55;0.55;;;;;;;10.10;51.32;99698.19;4936809;29;20059;-83
2023/05/13 02:38:56;;;;;;;0.55;0.55;;;;;;;10.03;51.31;99689.38;4952787;29;20047;-83
2023/05/13 02:41:23;;;;;;;0.50;0.50;;;;;;;10.15;50.90;99703.75;4938013;29;20058;-82
2023/05/13 02:43:51;;;;;;;0.50;0.50;;;;;;;10.23;50.73;99695.38;4960861;29;20051;-83
2023/05/13 02:46:21;;;;;;;0.50;0.50;;;;;;;10.33;50.15;99711.03;4946793;29;20055;-82
2023/05/13 02:48:48;;;;;;;0.50;0.50;;;;;;;10.47;49.88;99706.31;4957569;29;20058;-83
2023/05/13 02:51:17;;;;;;;0.50;0.50;;;;;;;10.58;49.54;99709.09;4948535;28;20050;-82
2023/05/13 02:53:44;;;;;;;0.50;0.50;;;;;;;10.59;50.29;99708.03;4952317;29;20465;-83
2023/05/13 02:56:15;;;;;;;0.50;0.50;;;;;;;10.61;50.19;99705.94;4936578;29;20302;-83
2023/05/13 02:58:42;;;;;;;0.50;0.50;;;;;;;10.73;49.61;99702.44;4936455;29;20055;-82
2023/05/13 03:01:09;;;;;;;0.60;0.60;;;;;;;10.85;49.36;99706.84;4936255;29;20054;-82
2023/05/13 03:03:37;;;;;;;0.50;0.50;;;;;;;10.85;48.97;99685.22;4948047;28;20142;-83
2023/05/13 03:06:05;;;;;;;0.50;0.50;;;;;;;11.00;48.68;99702.91;4955885;28;20302;-83
2023/05/13 03:08:32;;;;;;;0.50;0.50;;;;;;;11.06;49.28;99707.38;4939625;28;20061;-83
2023/05/13 03:11:00;;;;;;;0.50;0.50;;;;;;;11.16;49.13;99713.03;4971959;28;20632;-83
2023/05/13 03:13:29;;;;;;;0.50;0.50;;;;;;;11.23;48.78;99708.34;4939264;28;20053;-83
2023/05/13 03:15:57;;;;;;;0.57;0.57;;;;;;;11.33;48.24;99715.91;4972269;28;20399;-83
2023/05/13 03:18:24;;;;;;;0.50;0.50;;;;;;;11.39;48.66;99706.84;4956906;28;20525;-83
2023/05/13 03:20:52;;;;;;;0.50;0.50;;;;;;;11.45;48.02;99705.13;4955418;28;20528;-83
2023/05/13 03:23:20;;;;;;;0.50;0.50;;;;;;;11.50;48.27;99710.66;4955141;28;20513;-83
2023/05/13 03:25:50;;;;;;;0.50;0.50;;;;;;;11.56;47.85;99719.69;4954826;28;20130;-83
2023/05/13 03:28:20;;;;;;;0.43;0.43;;;;;;;11.62;47.12;99714.19;4955861;28;20047;-83
2023/05/13 03:30:47;;;;;;;0.40;0.40;;;;;;;11.69;47.41;99716.75;4972110;28;20528;-83
2023/05/13 03:33:18;;;;;;;0.50;0.50;;;;;;;11.78;47.31;99722.66;4955393;28;20227;-83
2023/05/13 03:35:48;;;;;;;0.50;0.50;;;;;;;11.79;46.88;99722.41;4955059;28;20051;-83
2023/05/13 03:38:28;;;;;;;0.50;0.50;;;;;;;11.87;47.10;99721.25;4955553;28;20062;-83
2023/05/13 03:40:55;;;;;;;0.50;0.50;;;;;;;11.97;46.52;99724.19;4955250;28;20073;-83
2023/05/13 03:43:22;;;;;;;0.50;0.50;;;;;;;12.02;46.03;99721.63;4971188;28;20061;-83
2023/05/13 03:45:57;;;;;;;0.50;0.50;;;;;;;12.07;46.59;99719.03;4941268;28;20047;-84
2023/05/13 03:48:25;;;;;;;0.50;0.50;;;;;;;12.17;47.00;99718.41;4957910;28;20054;-84
2023/05/13 03:50:55;;;;;;;0.50;0.50;;;;;;;12.26;46.17;99721.59;4954686;28;20129;-84
2023/05/13 03:53:23;;;;;;;0.50;0.50;;;;;;;12.38;46.61;99721.56;4952551;29;20095;-84
2023/05/13 03:55:51;;;;;;;0.50;0.50;;;;;;;12.50;46.22;99722.38;4952407;29;20471;-84
2023/05/13 03:58:20;;;;;;;0.50;0.50;;;;;;;12.62;45.83;99725.03;4953591;29;20063;-83
2023/05/13 04:00:48;;;;;;;0.50;0.50;;;;;;;12.72;45.91;99723.34;4936220;29;20055;-83
2023/05/13 04:03:16;;;;;;;0.40;0.40;;;;;;;12.83;45.50;99727.06;4961218;28;20054;-83
2023/05/13 04:05:47;;;;;;;0.50;0.50;;;;;;;12.87;44.63;99722.81;4972855;28;20101;-83
2023/05/13 04:08:17;;;;;;;0.50;0.50;;;;;;;12.91;44.20;99723.16;4954060;28;20058;-83
2023/05/13 04:10:46;;;;;;;0.50;0.50;;;;;;;13.08;44.51;99726.72;4971671;28;20057;-81
2023/05/13 04:13:13;;;;;;;0.40;0.40;;;;;;;13.16;44.47;99725.50;4954549;28;20046;-82
2023/05/13 04:15:42;;;;;;;0.50;0.50;;;;;;;13.27;44.11;99723.81;4954614;28;20134;-83
2023/05/13 04:18:09;;;;;;;0.50;0.50;;;;;;;13.34;44.18;99732.63;4971763;28;20053;-84
2023/05/13 04:20:38;;;;;;;0.50;0.50;;;;;;;13.46;43.44;99736.09;4938284;28;20046;-83
2023/05/13 04:23:05;;;;;;;0.50;0.50;;;;;;;13.51;42.85;99728.03;4971420;28;20109;-82
2023/05/13 04:25:34;;;;;;;0.50;0.50;;;;;;;13.57;43.37;99729.78;4970715;28;20051;-83
2023/05/13 04:28:01;;;;;;;0.50;0.50;;;;;;;13.66;43.13;99724.75;4971811;28;20054;-82
2023/05/13 04:30:35;;;;;;;0.40;0.40;;;;;;;13.76;43.08;99724.91;4954730;28;20074;-81
2023/05/13 04:33:03;;;;;;;0.50;0.50;;;;;;;13.88;43.00;99722.94;4971782;28;20518;-81
2023/05/13 04:35:31;;;;;;;0.40;0.40;;;;;;;14.00;42.84;99732.84;4955670;28;20082;-82
2023/05/13 04:38:01;;;;;;;0.40;0.40;;;;;;;13.93;42.08;99707.81;4959415;28;20502;-82
2023/05/13 04:40:29;;;;;;;0.40;0.40;;;;;;;14.09;41.68;99732.19;4982440;28;20054;-82
2023/05/13 04:43:04;;;;;;;0.50;0.50;;;;;;;14.24;42.88;99728.06;4965627;28;20074;-83
2023/05/13 04:45:42;;;;;;;0.40;0.40;;;;;;;14.42;42.40;99729.66;4955280;28;20109;-83
2023/05/13 04:48:11;;;;;;;0.40;0.40;;;;;;;14.52;41.45;99727.06;4970055;28;20051;-82
2023/05/13 04:50:46;;;;;;;0.40;0.40;;;;;;;14.59;41.24;99738.59;4963919;28;20055;-81
2023/05/13 04:53:15;;;;;;;0.50;0.50;;;;;;;14.67;41.19;99740.84;4933583;29;20055;-80
2023/05/13 04:55:48;;;;;;;0.45;0.45;;;;;;;14.80;40.73;99736.94;4933844;29;20166;-83
2023/05/13 04:58:15;;;;;;;0.40;0.40;;;;;;;14.78;40.58;99735.53;4933472;29;20086;-81
2023/05/13 05:00:46;;;;;;;0.40;0.40;;;;;;;14.76;40.89;99735.78;4900028;29;20086;-83
2023/05/13 05:03:13;;;;;;;0.40;0.40;;;;;;;14.92;40.85;99739.50;4929307;29;20062;-83
2023/05/13 05:05:41;;;;;;;0.40;0.40;;;;;;;15.00;40.22;99739.06;4927563;29;20506;-81
2023/05/13 05:08:12;;;;;;;0.40;0.40;;;;;;;15.07;40.23;99747.81;4928911;29;20067;-84
2023/05/13 05:10:39;;;;;;;0.40;0.40;;;;;;;15.11;39.79;99735.34;4941969;29;20050;-82
2023/05/13 05:13:08;;;;;;;0.40;0.40;;;;;;;15.18;39.50;99741.41;4948863;29;20103;-79
2023/05/13 05:15:40;;;;;;;0.40;0.40;;;;;;;15.22;39.29;99740.88;4928170;29;20107;-80
2023/05/13 05:18:09;;;;;;;0.40;0.40;;;;;;;15.26;38.86;99747.47;4918399;29;20051;-81
2023/05/13 05:20:40;;;;;;;0.40;0.40;;;;;;;15.39;39.32;99731.56;4916385;29;20052;-80
2023/05/13 05:23:19;;;;;;;0.40;0.40;;;;;;;15.53;38.95;99745.53;4901782;29;20055;-82
2023/05/13 05:25:47;;;;;;;0.40;0.40;;;;;;;15.51;38.77;99731.38;4948301;28;20054;-81
2023/05/13 05:28:30;;;;;;;0.40;0.40;;;;;;;15.56;38.69;99739.56;4934242;29;20768;-83
2023/05/13 05:30:58;;;;;;;0.40;0.40;;;;;;;15.68;38.93;99736.69;4913798;29;20055;-80
2023/05/13 05:33:27;;;;;;;0.40;0.40;;;;;;;15.79;38.65;99746.59;4934837;29;20047;-83
2023/05/13 05:35:54;;;;;;;0.40;0.40;;;;;;;15.73;38.86;99735.94;4937332;29;20079;-82
2023/05/13 05:38:26;;;;;;;0.40;0.40;;;;;;;15.87;38.98;99742.56;4921591;29;20051;-82
2023/05/13 05:40:56;;;;;;;0.40;0.40;;;;;;;15.81;38.94;99735.44;4937249;29;20070;-80
2023/05/13 05:43:35;;;;;;;0.40;0.40;;;;;;;15.91;38.43;99735.53;4931454;29;20450;-83
2023/05/13 05:46:03;;;;;;;0.40;0.40;;;;;;;15.99;38.07;99748.63;4925420;29;20394;-83
2023/05/13 05:48:35;;;;;;;0.40;0.40;;;;;;;16.07;37.86;99730.97;4919747;29;20048;-83
2023/05/13 05:51:04;;;;;;;0.40;0.40;;;;;;;16.15;37.07;99737.84;4944042;29;20066;-83
2023/05/13 05:53:34;;;;;;;0.35;0.35;;;;;;;16.24;36.49;99742.53;4942952;28;20494;-83
2023/05/13 05:56:02;;;;;;;0.40;0.40;;;;;;;16.34;36.63;99747.22;4940707;28;20101;-82
2023/05/13 05:58:30;;;;;;;0.40;0.40;;;;;;;16.45;35.90;99751.63;4957248;28;20046;-84
2023/05/13 06:00:59;;;;;;;0.40;0.40;;;;;;;16.50;35.41;99744.56;4960412;29;20047;-82
2023/05/13 06:03:26;;;;;;;0.40;0.40;;;;;;;16.55;34.86;99752.75;4956556;28;20129;-85
2023/05/13 06:05:54;;;;;;;0.40;0.40;;;;;;;16.56;34.65;99733.44;5027978;23;20063;-82
2023/05/13 06:08:28;;;;;;;0.40;0.40;;;;;;;16.70;33.96;99747.38;4993086;28;20050;-83
2023/05/13 06:10:57;;;;;;;0.40;0.40;;;;;;;16.73;33.73;99727.75;4992093;28;20047;-82
2023/05/13 06:13:25;;;;;;;0.40;0.40;;;;;;;16.90;33.61;99750.19;4991195;28;20078;-83
2023/05/13 06:15:52;;;;;;;0.40;0.40;;;;;;;17.12;33.32;99751.91;4977355;28;20049;-81
2023/05/13 06:18:19;;;;;;;0.40;0.40;;;;;;;17.16;33.85;99744.81;4975772;28;20056;-83
2023/05/13 06:20:47;;;;;;;0.40;0.40;;;;;;;17.32;34.31;99751.94;4975112;28;20081;-83
2023/05/13 06:23:14;;;;;;;0.40;0.40;;;;;;;17.45;33.22;99747.03;4971854;28;20429;-84
2023/05/13 06:25:41;;;;;;;0.40;0.40;;;;;;;17.49;33.49;99757.13;4991687;28;20057;-84
2023/05/13 06:28:12;;;;;;;0.40;0.40;;;;;;;17.63;33.04;99751.16;4975609;28;20050;-84
2023/05/13 06:30:42;;;;;;;0.40;0.40;;;;;;;17.56;32.29;99743.22;4976470;28;20053;-85
2023/05/13 06:33:11;;;;;;;0.40;0.40;;;;;;;17.62;32.39;99750.31;4968986;28;20093;-84
2023/05/13 06:35:39;;;;;;;0.40;0.40;;;;;;;17.67;32.28;99744.88;4975649;28;20061;-85
2023/05/13 06:38:13;;;;;;;0.40;0.40;;;;;;;17.65;31.65;99744.31;5009078;28;20062;-84
2023/05/13 06:40:40;;;;;;;0.30;0.30;;;;;;;17.84;31.84;99749.25;4981440;28;20089;-83
2023/05/13 06:43:13;;;;;;;0.30;0.30;;;;;;;17.90;31.68;99745.41;4974972;28;20469;-84
2023/05/13 06:45:45;;;;;;;0.30;0.30;;;;;;;17.92;31.74;99749.50;4994021;28;20050;-85
2023/05/13 06:48:13;;;;;;;0.40;0.40;;;;;;;17.90;32.28;99745.41;4994444;28;20107;-84
2023/05/13 06:50:40;;;;;;;0.30;0.30;;;;;;;18.05;32.50;99741.84;4995633;28;20424;-85
2023/05/13 06:53:11;;;;;;;0.30;0.30;;;;;;;18.14;31.60;99732.00;4979384;28;20488;-84
2023/05/13 06:55:42;;;;;;;0.30;0.30;;;;;;;18.28;32.03;99740.41;4995150;28;20050;-85
2023/05/13 06:58:10;;;;;;;0.40;0.40;;;;;;;18.16;31.28;99727.91;4994516;28;20144;-83
2023/05/13 07:00:38;;;;;;;0.30;0.30;;;;;;;18.25;31.75;99743.72;5011898;28;20077;-85
2023/05/13 07:03:06;;;;;;;0.30;0.30;;;;;;;18.32;31.19;99736.03;5011773;28;20069;-84
2023/05/13 07:05:34;;;;;;;0.40;0.40;;;;;;;18.51;30.90;99739.81;4994641;28;20053;-84
2023/05/13 07:08:07;;;;;;;0.40;0.40;;;;;;;18.55;30.44;99740.06;4994317;28;20861;-84
2023/05/13 07:10:34;;;;;;;0.40;0.40;;;;;;;18.63;30.20;99745.78;5012616;28;20046;-85
2023/05/13 07:13:02;;;;;;;0.40;0.40;;;;;;;18.69;30.26;99718.44;5014141;28;20566;-84
2023/05/13 07:15:29;;;;;;;0.40;0.40;;;;;;;18.81;29.81;99727.97;4996804;28;20046;-85
2023/05/13 07:17:56;;;;;;;0.40;0.40;;;;;;;18.83;30.08;99735.88;4994534;28;20060;-84
2023/05/13 07:20:25;;;;;;;0.40;0.40;;;;;;;18.81;29.71;99727.13;5011988;28;20046;-84
2023/05/13 07:22:53;;;;;;;0.30;0.30;;;;;;;19.00;29.72;99722.66;5011536;28;20141;-84
2023/05/13 07:25:20;;;;;;;0.40;0.40;;;;;;;19.29;29.82;99727.38;5011489;28;20056;-85
2023/05/13 07:27:47;;;;;;;0.30;0.30;;;;;;;19.60;29.33;99732.63;5011111;28;20703;-84
2023/05/13 07:30:15;;;;;;;0.40;0.40;;;;;;;19.82;28.46;99713.81;4994001;28;20053;-84
2023/05/13 07:32:42;;;;;;;0.40;0.40;;;;;;;20.10;27.64;99723.16;4993961;28;20095;-85
2023/05/13 07:35:09;;;;;;;0.40;0.40;;;;;;;19.84;27.53;99725.31;4993608;28;20046;-85
2023/05/13 07:37:37;;;;;;;0.50;0.50;;;;;;;19.80;27.58;99727.00;4992977;28;20649;-85
2023/05/13 07:40:05;;;;;;;0.40;0.40;;;;;;;19.81;28.05;99728.63;5010594;28;20041;-84
2023/05/13 07:42:32;;;;;;;0.40;0.40;;;;;;;20.00;27.82;99731.44;4993250;28;20111;-82
2023/05/13 07:45:06;;;;;;;0.50;0.50;;;;;;;20.14;27.72;99723.38;4993875;28;20081;-82
2023/05/13 07:47:34;;;;;;;0.40;0.40;;;;;;;20.23;27.65;99729.03;4645115;28;10000089;-82
2023/05/13 07:50:01;;;;;;;0.40;0.40;;;;;;;20.28;27.23;99726.22;5006954;28;20100;-84
2023/05/13 07:52:31;;;;;;;0.40;0.40;;;;;;;20.44;27.50;99735.94;4990277;28;20424;-84
2023/05/13 07:54:59;;;;;;;0.50;0.50;;;;;;;20.90;27.37;99724.41;5006828;28;20042;-84
2023/05/13 07:57:26;;;;;;;0.40;0.40;;;;;;;21.18;26.68;99724.56;5007374;28;20056;-83
2023/05/13 07:59:53;;;;;;;0.40;0.40;;;;;;;21.32;26.43;99719.97;4989685;28;20073;-85
2023/05/13 08:02:20;;;;;;;0.40;0.40;;;;;;;21.29;26.32;99731.50;5007754;28;20049;-85
2023/05/13 08:04:48;;;;;;;0.40;0.40;;;;;;;21.13;25.98;99725.44;5011426;28;20058;-84
2023/05/13 08:07:15;;;;;;;0.50;0.50;;;;;;;20.75;26.46;99724.59;5016115;28;20081;-83
2023/05/13 08:09:42;;;;;;;0.50;0.50;;;;;;;20.81;27.07;99712.44;5019005;28;20045;-84
2023/05/13 08:12:10;;;;;;;0.40;0.40;;;;;;;21.08;26.93;99721.97;5006678;28;20085;-83
2023/05/13 08:14:37;;;;;;;0.50;0.50;;;;;;;21.48;26.39;99726.03;4989231;28;20073;-83
2023/05/13 08:17:07;;;;;;;0.40;0.40;;;;;;;22.04;26.41;99730.56;5006790;28;20042;-81
2023/05/13 08:19:45;;;;;;;0.50;0.50;;;;;;;22.04;25.41;99727.00;5007138;28;20041;-80
2023/05/13 08:22:15;;;;;;;0.50;0.50;;;;;;;22.05;26.56;99728.63;5009694;28;20137;-82
2023/05/13 08:25:40;;;;;;;0.40;0.40;;;;;;;22.37;26.01;99736.00;4992709;28;20050;-83
2023/05/13 08:28:31;;;;;;;0.50;0.50;;;;;;;22.63;25.26;99730.00;4977517;28;20057;-82
2023/05/13 08:31:01;;;;;;;0.50;0.50;;;;;;;22.34;24.52;99706.38;5010946;28;20081;-83
2023/05/13 08:33:29;;;;;;;0.50;0.50;;;;;;;21.92;24.50;99708.25;4978271;28;20136;-84
2023/05/13 08:35:58;;;;;;;0.50;0.50;;;;;;;21.69;24.97;99701.78;4993163;28;20120;-82
2023/05/13 08:38:25;;;;;;;0.50;0.50;;;;;;;22.37;24.94;99704.97;4977917;28;20076;-82
2023/05/13 08:40:52;;;;;;;0.50;0.50;;;;;;;22.59;23.63;99698.75;5010887;28;20053;-84
2023/05/13 08:43:23;;;;;;;0.40;0.40;;;;;;;22.65;23.92;99705.75;5018888;28;20062;-83
2023/05/13 08:45:52;;;;;;;0.50;0.50;;;;;;;22.86;24.19;99715.19;4992585;28;20579;-83
2023/05/13 08:48:19;;;;;;;0.50;0.50;;;;;;;23.33;23.23;99709.47;4977401;28;20552;-83
2023/05/13 08:50:47;;;;;;;0.40;0.40;;;;;;;22.89;23.92;99700.00;4977915;28;20049;-82
2023/05/13 08:53:16;;;;;;;0.50;0.50;;;;;;;22.86;24.37;99706.91;4993889;28;20413;-83
2023/05/13 08:55:44;;;;;;;0.50;0.50;;;;;;;22.88;23.82;99685.41;5010688;28;20053;-83
2023/05/13 08:58:11;;;;;;;0.52;0.52;;;;;;;23.19;23.60;99700.44;4994230;28;20058;-83
2023/05/13 09:00:39;;;;;;;0.50;0.50;;;;;;;24.02;22.89;99700.84;4993601;28;20225;-83
2023/05/13 09:03:07;;;;;;;0.50;0.50;;;;;;;24.62;21.93;99702.22;4974964;28;20054;-83
2023/05/13 09:05:37;;;;;;;0.50;0.50;;;;;;;24.93;21.50;99691.06;4973854;28;20054;-84
2023/05/13 09:08:08;;;;;;;0.50;0.50;;;;;;;25.51;20.09;99692.53;4992219;28;20042;-84
2023/05/13 09:10:36;;;;;;;0.50;0.50;;;;;;;25.00;20.34;99702.44;5014888;28;20057;-83
2023/05/13 09:13:04;;;;;;;0.50;0.50;;;;;;;24.75;20.85;99683.91;4998683;28;20529;-83
2023/05/13 09:15:34;;;;;;;0.50;0.50;;;;;;;24.80;20.33;99681.81;5016333;28;20080;-84
2023/05/13 09:18:05;;;;;;;0.50;0.50;;;;;;;24.67;21.20;99695.75;4997006;28;20424;-82
2023/05/13 09:20:34;;;;;;;0.50;0.50;;;;;;;25.00;20.94;99679.56;5013507;28;20046;-83
2023/05/13 09:23:06;;;;;;;0.50;0.50;;;;;;;25.01;20.95;99681.16;5013066;28;20054;-83
2023/05/13 09:25:35;;;;;;;0.60;0.60;;;;;;;25.50;20.58;99671.59;5013623;28;20049;-83
2023/05/13 09:28:04;;;;;;;0.50;0.50;;;;;;;26.16;20.18;99673.19;4979566;28;20050;-83
2023/05/13 09:30:39;;;;;;;0.50;0.50;;;;;;;26.04;19.59;99671.13;5013463;28;20136;-82
2023/05/13 09:33:13;;;;;;;0.50;0.50;;;;;;;25.44;20.19;99667.34;4997674;28;20076;-83
2023/05/13 09:35:43;;;;;;;0.50;0.50;;;;;;;25.29;20.18;99665.09;4996855;28;20058;-83
2023/05/13 09:38:15;;;;;;;0.50;0.50;;;;;;;25.67;20.23;99654.13;5013540;28;20080;-82
2023/05/13 09:40:57;;;;;;;0.50;0.50;;;;;;;26.74;19.35;99666.03;5013043;28;20072;-83
2023/05/13 09:43:31;;;;;;;0.50;0.50;;;;;;;27.43;18.60;99658.31;5013269;28;20107;-82
2023/05/13 09:46:03;;;;;;;0.50;0.50;;;;;;;27.02;18.48;99651.66;4995158;28;20520;-83
2023/05/13 09:48:33;;;;;;;0.50;0.50;;;;;;;26.60;19.53;99646.09;5013030;28;20061;-82
2023/05/13 09:51:00;;;;;;;0.50;0.50;;;;;;;26.85;18.38;99658.13;4995559;28;20811;-82
2023/05/13 09:53:27;;;;;;;0.50;0.50;;;;;;;26.98;19.01;99656.25;5012871;28;20128;-82
2023/05/13 09:55:57;;;;;;;0.50;0.50;;;;;;;27.23;18.22;99658.00;5012684;28;20053;-82
2023/05/13 09:58:29;;;;;;;0.50;0.50;;;;;;;27.53;18.24;99646.00;5013007;28;20050;-83
2023/05/13 10:00:57;;;;;;;0.50;0.50;;;;;;;27.97;17.95;99638.81;4995420;28;20471;-81
2023/05/13 10:03:31;;;;;;;0.50;0.50;;;;;;;28.60;17.42;99654.31;4976242;28;20499;-84
2023/05/13 10:05:58;;;;;;;0.40;0.40;;;;;;;29.03;17.29;99647.25;4986109;28;20067;-83
2023/05/13 10:08:29;;;;;;;0.50;0.50;;;;;;;28.33;17.02;99648.28;4993179;28;20050;-81
2023/05/13 10:10:59;;;;;;;0.50;0.50;;;;;;;27.59;17.66;99637.09;4993290;28;20054;-83
2023/05/13 10:13:27;;;;;;;0.40;0.40;;;;;;;27.53;18.03;99655.13;4976297;28;20046;-83
2023/05/13 10:15:55;;;;;;;0.50;0.50;;;;;;;27.80;17.94;99645.34;4960081;28;20057;-82
2023/05/13 10:18:22;;;;;;;0.50;0.50;;;;;;;28.04;17.72;99639.03;4992363;28;20536;-83
2023/05/13 10:20:51;;;;;;;0.40;0.40;;;;;;;27.80;17.35;99634.25;4990629;28;20073;-83
2023/05/13 10:23:22;;;;;;;0.40;0.40;;;;;;;27.33;18.55;99636.56;4992620;28;20077;-82
2023/05/13 10:25:53;;;;;;;0.40;0.40;;;;;;;27.72;18.65;99648.22;4992707;28;20050;-82
2023/05/13 10:28:24;;;;;;;0.30;0.30;;;;;;;28.18;17.92;99626.78;4993382;28;20054;-82
2023/05/13 10:30:51;;;;;;;0.40;0.40;;;;;;;28.32;17.58;99624.47;4958187;28;20500;-82
2023/05/13 10:33:19;;;;;;;0.40;0.40;;;;;;;29.13;17.12;99647.56;4990879;28;20092;-82
2023/05/13 10:36:30;;;;;;;0.40;0.40;;;;;;;29.48;17.55;99644.19;4960208;28;20508;-81
2023/05/13 10:39:10;;;;;;;0.50;0.50;;;;;;;30.28;17.30;99625.56;4958523;28;20108;-82
2023/05/13 10:41:56;;;;;;;0.40;0.40;;;;;;;30.05;15.70;99633.72;4974032;28;20129;-81
2023/05/13 10:44:35;;;;;;;0.50;0.50;;;;;;;29.07;16.52;99634.31;4991303;28;20057;-82
2023/05/13 10:47:05;;;;;;;0.40;0.40;;;;;;;29.17;16.46;99637.38;4950625;28;20571;-84
2023/05/13 10:49:33;;;;;;;0.38;0.38;;;;;;;29.67;16.51;99624.03;4975090;28;20046;-85
2023/05/13 10:52:06;;;;;;;0.60;0.60;;;;;;;30.20;15.80;99626.53;4991827;28;20058;-83
2023/05/13 10:54:39;;;;;;;0.40;0.40;;;;;;;30.66;15.55;99641.56;4989245;28;20047;-82
2023/05/13 10:57:16;;;;;;;0.40;0.40;;;;;;;30.77;15.82;99616.72;4970550;28;20058;-82
2023/05/13 11:00:14;;;;;;;0.40;0.40;;;;;;;31.72;15.67;99632.13;4971849;28;20052;-81
2023/05/13 11:02:44;;;;;;;0.40;0.40;;;;;;;32.03;14.96;99630.28;4956512;28;20065;-83
2023/05/13 11:05:20;;;;;;;0.40;0.40;;;;;;;30.99;14.83;99623.59;4976781;28;20047;-81
2023/05/13 11:07:56;;;;;;;0.50;0.50;;;;;;;30.03;15.43;99622.97;5011270;28;20061;-84
2023/05/13 11:10:30;;;;;;;0.47;0.47;;;;;;;30.32;16.13;99626.47;4979097;28;20046;-85
2023/05/13 11:13:14;;;;;;;0.50;0.50;;;;;;;30.76;15.71;99620.66;4992740;28;20073;-82
2023/05/13 11:15:49;;;;;;;0.40;0.40;;;;;;;31.45;15.71;99620.13;5011554;28;20046;-82
2023/05/13 11:18:32;;;;;;;0.40;0.40;;;;;;;31.29;15.16;99606.22;4996307;28;20064;-82
2023/05/13 11:21:06;;;;;;;0.40;0.40;;;;;;;31.08;15.11;99610.22;4978399;28;20057;-84
2023/05/13 11:23:50;;;;;;;0.40;0.40;;;;;;;30.98;15.10;99605.22;4975950;28;20062;-83
2023/05/13 11:26:24;;;;;;;0.40;0.40;;;;;;;31.23;15.59;99597.34;4955686;28;20385;-83
2023/05/13 11:29:04;;;;;;;0.40;0.40;;;;;;;30.76;15.59;99606.72;5004067;28;20058;-82
2023/05/13 11:31:47;;;;;;;0.50;0.50;;;;;;;31.95;15.61;99607.88;5014010;28;20469;-81
2023/05/13 11:34:16;;;;;;;0.40;0.40;;;;;;;32.61;14.56;99602.03;5019584;28;20061;-82
2023/05/13 11:36:46;;;;;;;0.50;0.50;;;;;;;32.88;14.54;99599.22;5015358;28;20050;-82
2023/05/13 11:39:21;;;;;;;0.40;0.40;;;;;;;33.02;13.74;99591.03;5015982;28;20108;-82
2023/05/13 11:41:49;;;;;;;0.40;0.40;;;;;;;33.19;13.95;99601.59;4944592;28;20503;-82
2023/05/13 11:44:27;;;;;;;0.43;0.43;;;;;;;33.35;13.74;99587.38;5008625;28;20073;-84
2023/05/13 11:46:57;;;;;;;0.40;0.40;;;;;;;33.00;14.03;99598.97;4991434;28;20050;-81
2023/05/13 11:49:43;;;;;;;0.40;0.40;;;;;;;32.68;14.33;99599.34;5011129;28;20144;-82